sensor_id;sensor_type;location;lat;lon;timestamp;P1;durP1;ratioP1;P2;durP2;ratioP2
7613;SDS011;3848;42.016;23.098;2022-11-15T00:02:01;51.67;;;47.27;;
7613;SDS011;3848;42.016;23.098;2022-11-15T00:04:31;50.90;;;46.70;;
7613;SDS011;3848;42.016;23.098;2022-11-15T00:06:57;54.87;;;50.43;;
7613;SDS011;3848;42.016;23.098;2022-11-15T00:09:24;55.10;;;50.57;;
7613;SDS011;3848;42.016;23.098;2022-11-15T00:11:51;52.00;;;48.43;;
7613;SDS011;3848;42.016;23.098;2022-11-15T00:14:18;51.10;;;47.50;;
7613;SDS011;3848;42.016;23.098;2022-11-15T00:16:45;49.97;;;46.47;;
7613;SDS011;3848;42.016;23.098;2022-11-15T00:19:12;48.20;;;44.63;;
7613;SDS011;3848;42.016;23.098;2022-11-15T00:21:40;49.30;;;46.00;;
7613;SDS011;3848;42.016;23.098;2022-11-15T00:24:07;49.27;;;45.17;;
7613;SDS011;3848;42.016;23.098;2022-11-15T00:26:33;46.13;;;42.80;;
7613;SDS011;3848;42.016;23.098;2022-11-15T00:29:00;52.10;;;48.53;;
7613;SDS011;3848;42.016;23.098;2022-11-15T00:31:27;49.37;;;46.20;;
7613;SDS011;3848;42.016;23.098;2022-11-15T00:33:53;49.77;;;46.53;;
7613;SDS011;3848;42.016;23.098;2022-11-15T00:36:20;57.67;;;53.90;;
7613;SDS011;3848;42.016;23.098;2022-11-15T00:38:48;57.80;;;53.40;;
7613;SDS011;3848;42.016;23.098;2022-11-15T00:41:15;55.80;;;52.17;;
7613;SDS011;3848;42.016;23.098;2022-11-15T00:43:42;53.53;;;50.00;;
7613;SDS011;3848;42.016;23.098;2022-11-15T00:46:09;48.50;;;45.27;;
7613;SDS011;3848;42.016;23.098;2022-11-15T00:48:36;50.67;;;47.27;;
7613;SDS011;3848;42.016;23.098;2022-11-15T00:51:03;48.93;;;45.47;;
7613;SDS011;3848;42.016;23.098;2022-11-15T00:53:30;52.83;;;49.10;;
7613;SDS011;3848;42.016;23.098;2022-11-15T00:55:58;56.07;;;51.83;;
7613;SDS011;3848;42.016;23.098;2022-11-15T00:58:25;54.93;;;50.83;;
7613;SDS011;3848;42.016;23.098;2022-11-15T01:00:52;57.57;;;53.37;;
7613;SDS011;3848;42.016;23.098;2022-11-15T01:03:19;67.47;;;62.73;;
7613;SDS011;3848;42.016;23.098;2022-11-15T01:05:46;69.47;;;64.93;;
7613;SDS011;3848;42.016;23.098;2022-11-15T01:08:13;73.30;;;68.50;;
7613;SDS011;3848;42.016;23.098;2022-11-15T01:10:43;81.33;;;76.43;;
7613;SDS011;3848;42.016;23.098;2022-11-15T01:13:11;77.83;;;72.90;;
7613;SDS011;3848;42.016;23.098;2022-11-15T01:15:39;79.13;;;73.93;;
7613;SDS011;3848;42.016;23.098;2022-11-15T01:18:06;77.27;;;72.37;;
7613;SDS011;3848;42.016;23.098;2022-11-15T01:20:33;77.00;;;71.60;;
7613;SDS011;3848;42.016;23.098;2022-11-15T01:23:00;74.13;;;69.53;;
7613;SDS011;3848;42.016;23.098;2022-11-15T01:25:26;77.00;;;71.40;;
7613;SDS011;3848;42.016;23.098;2022-11-15T01:27:53;71.17;;;66.33;;
7613;SDS011;3848;42.016;23.098;2022-11-15T01:30:21;70.87;;;66.00;;
7613;SDS011;3848;42.016;23.098;2022-11-15T01:32:48;70.90;;;66.30;;
7613;SDS011;3848;42.016;23.098;2022-11-15T01:35:15;65.60;;;61.10;;
7613;SDS011;3848;42.016;23.098;2022-11-15T01:37:41;66.80;;;62.43;;
7613;SDS011;3848;42.016;23.098;2022-11-15T01:40:08;66.80;;;62.00;;
7613;SDS011;3848;42.016;23.098;2022-11-15T01:42:36;70.70;;;66.20;;
7613;SDS011;3848;42.016;23.098;2022-11-15T01:45:03;76.13;;;71.53;;
7613;SDS011;3848;42.016;23.098;2022-11-15T01:47:33;80.47;;;75.07;;
7613;SDS011;3848;42.016;23.098;2022-11-15T01:50:04;74.67;;;70.10;;
7613;SDS011;3848;42.016;23.098;2022-11-15T01:52:34;71.70;;;67.17;;
7613;SDS011;3848;42.016;23.098;2022-11-15T01:55:03;70.80;;;66.43;;
7613;SDS011;3848;42.016;23.098;2022-11-15T01:57:34;74.40;;;69.77;;
7613;SDS011;3848;42.016;23.098;2022-11-15T02:00:02;74.33;;;69.37;;
7613;SDS011;3848;42.016;23.098;2022-11-15T02:02:32;77.07;;;71.87;;
7613;SDS011;3848;42.016;23.098;2022-11-15T02:05:00;76.50;;;71.63;;
7613;SDS011;3848;42.016;23.098;2022-11-15T02:07:26;70.30;;;66.07;;
7613;SDS011;3848;42.016;23.098;2022-11-15T02:09:56;65.27;;;61.10;;
7613;SDS011;3848;42.016;23.098;2022-11-15T02:12:27;64.77;;;60.80;;
7613;SDS011;3848;42.016;23.098;2022-11-15T02:14:54;68.83;;;63.90;;
7613;SDS011;3848;42.016;23.098;2022-11-15T02:17:29;71.53;;;66.90;;
7613;SDS011;3848;42.016;23.098;2022-11-15T02:20:27;66.90;;;62.80;;
7613;SDS011;3848;42.016;23.098;2022-11-15T02:26:14;73.00;;;68.97;;
7613;SDS011;3848;42.016;23.098;2022-11-15T02:28:56;71.90;;;67.60;;
7613;SDS011;3848;42.016;23.098;2022-11-15T02:31:29;70.20;;;65.93;;
7613;SDS011;3848;42.016;23.098;2022-11-15T02:34:04;69.97;;;65.43;;
7613;SDS011;3848;42.016;23.098;2022-11-15T02:36:40;61.47;;;56.97;;
7613;SDS011;3848;42.016;23.098;2022-11-15T02:39:17;60.57;;;56.43;;
7613;SDS011;3848;42.016;23.098;2022-11-15T02:41:51;63.27;;;57.90;;
7613;SDS011;3848;42.016;23.098;2022-11-15T02:44:22;69.23;;;64.03;;
7613;SDS011;3848;42.016;23.098;2022-11-15T02:46:53;74.90;;;69.73;;
7613;SDS011;3848;42.016;23.098;2022-11-15T02:49:40;77.37;;;72.47;;
7613;SDS011;3848;42.016;23.098;2022-11-15T02:52:14;83.53;;;77.93;;
7613;SDS011;3848;42.016;23.098;2022-11-15T02:54:41;82.13;;;77.03;;
7613;SDS011;3848;42.016;23.098;2022-11-15T02:57:10;83.07;;;77.43;;
7613;SDS011;3848;42.016;23.098;2022-11-15T02:59:43;85.90;;;80.50;;
7613;SDS011;3848;42.016;23.098;2022-11-15T03:02:28;86.90;;;81.47;;
7613;SDS011;3848;42.016;23.098;2022-11-15T03:05:23;87.10;;;81.43;;
7613;SDS011;3848;42.016;23.098;2022-11-15T03:07:56;84.10;;;77.73;;
7613;SDS011;3848;42.016;23.098;2022-11-15T03:10:31;83.70;;;77.97;;
7613;SDS011;3848;42.016;23.098;2022-11-15T03:13:03;79.83;;;74.07;;
7613;SDS011;3848;42.016;23.098;2022-11-15T03:15:42;85.87;;;79.67;;
7613;SDS011;3848;42.016;23.098;2022-11-15T03:18:19;84.33;;;79.10;;
7613;SDS011;3848;42.016;23.098;2022-11-15T03:20:49;84.13;;;78.37;;
7613;SDS011;3848;42.016;23.098;2022-11-15T03:23:17;83.40;;;78.13;;
7613;SDS011;3848;42.016;23.098;2022-11-15T03:25:45;74.07;;;69.87;;
7613;SDS011;3848;42.016;23.098;2022-11-15T03:28:18;85.43;;;80.23;;
7613;SDS011;3848;42.016;23.098;2022-11-15T03:30:48;75.53;;;71.20;;
7613;SDS011;3848;42.016;23.098;2022-11-15T03:33:17;88.50;;;83.70;;
7613;SDS011;3848;42.016;23.098;2022-11-15T03:35:47;83.43;;;78.40;;
7613;SDS011;3848;42.016;23.098;2022-11-15T03:38:16;76.97;;;72.57;;
7613;SDS011;3848;42.016;23.098;2022-11-15T03:40:49;78.17;;;73.13;;
7613;SDS011;3848;42.016;23.098;2022-11-15T03:43:22;76.40;;;72.10;;
7613;SDS011;3848;42.016;23.098;2022-11-15T03:45:56;76.77;;;72.33;;
7613;SDS011;3848;42.016;23.098;2022-11-15T03:48:29;80.13;;;75.40;;
7613;SDS011;3848;42.016;23.098;2022-11-15T03:50:59;79.87;;;75.20;;
7613;SDS011;3848;42.016;23.098;2022-11-15T03:53:27;86.93;;;82.03;;
7613;SDS011;3848;42.016;23.098;2022-11-15T03:55:55;88.73;;;83.63;;
7613;SDS011;3848;42.016;23.098;2022-11-15T03:58:22;89.63;;;84.30;;
7613;SDS011;3848;42.016;23.098;2022-11-15T04:00:49;90.07;;;84.27;;
7613;SDS011;3848;42.016;23.098;2022-11-15T04:03:15;86.93;;;81.03;;
7613;SDS011;3848;42.016;23.098;2022-11-15T04:05:44;88.80;;;83.20;;
7613;SDS011;3848;42.016;23.098;2022-11-15T04:08:10;93.13;;;87.40;;
7613;SDS011;3848;42.016;23.098;2022-11-15T04:10:37;92.43;;;86.63;;
7613;SDS011;3848;42.016;23.098;2022-11-15T04:13:04;90.27;;;84.83;;
7613;SDS011;3848;42.016;23.098;2022-11-15T04:15:31;90.17;;;84.07;;
7613;SDS011;3848;42.016;23.098;2022-11-15T04:17:57;94.23;;;87.53;;
7613;SDS011;3848;42.016;23.098;2022-11-15T04:20:25;86.17;;;81.07;;
7613;SDS011;3848;42.016;23.098;2022-11-15T04:23:12;90.20;;;84.43;;
7613;SDS011;3848;42.016;23.098;2022-11-15T04:25:59;91.53;;;85.00;;
7613;SDS011;3848;42.016;23.098;2022-11-15T04:28:27;88.00;;;82.93;;
7613;SDS011;3848;42.016;23.098;2022-11-15T04:30:54;88.97;;;82.57;;
7613;SDS011;3848;42.016;23.098;2022-11-15T04:33:21;88.30;;;82.63;;
7613;SDS011;3848;42.016;23.098;2022-11-15T04:35:48;83.17;;;78.03;;
7613;SDS011;3848;42.016;23.098;2022-11-15T04:38:30;88.03;;;82.57;;
7613;SDS011;3848;42.016;23.098;2022-11-15T04:40:57;82.03;;;76.73;;
7613;SDS011;3848;42.016;23.098;2022-11-15T04:43:24;86.40;;;80.63;;
7613;SDS011;3848;42.016;23.098;2022-11-15T04:45:51;94.30;;;88.47;;
7613;SDS011;3848;42.016;23.098;2022-11-15T04:48:18;89.60;;;84.13;;
7613;SDS011;3848;42.016;23.098;2022-11-15T04:50:44;85.03;;;78.97;;
7613;SDS011;3848;42.016;23.098;2022-11-15T04:53:14;87.67;;;82.27;;
7613;SDS011;3848;42.016;23.098;2022-11-15T04:55:45;90.67;;;84.80;;
7613;SDS011;3848;42.016;23.098;2022-11-15T04:58:12;87.27;;;81.43;;
7613;SDS011;3848;42.016;23.098;2022-11-15T05:00:38;83.23;;;77.70;;
7613;SDS011;3848;42.016;23.098;2022-11-15T05:03:06;86.27;;;80.40;;
7613;SDS011;3848;42.016;23.098;2022-11-15T05:05:50;78.10;;;73.13;;
7613;SDS011;3848;42.016;23.098;2022-11-15T05:08:16;86.50;;;80.47;;
7613;SDS011;3848;42.016;23.098;2022-11-15T05:10:44;81.10;;;76.27;;
7613;SDS011;3848;42.016;23.098;2022-11-15T05:13:11;81.27;;;75.47;;
7613;SDS011;3848;42.016;23.098;2022-11-15T05:15:38;76.77;;;72.10;;
7613;SDS011;3848;42.016;23.098;2022-11-15T05:18:05;74.40;;;69.57;;
7613;SDS011;3848;42.016;23.098;2022-11-15T05:20:31;80.47;;;74.80;;
7613;SDS011;3848;42.016;23.098;2022-11-15T05:22:58;84.77;;;79.40;;
7613;SDS011;3848;42.016;23.098;2022-11-15T05:25:25;78.70;;;73.63;;
7613;SDS011;3848;42.016;23.098;2022-11-15T05:27:53;80.43;;;75.03;;
7613;SDS011;3848;42.016;23.098;2022-11-15T05:30:20;82.20;;;77.07;;
7613;SDS011;3848;42.016;23.098;2022-11-15T05:32:47;87.37;;;81.77;;
7613;SDS011;3848;42.016;23.098;2022-11-15T05:35:15;80.87;;;75.27;;
7613;SDS011;3848;42.016;23.098;2022-11-15T05:37:48;82.70;;;77.10;;
7613;SDS011;3848;42.016;23.098;2022-11-15T05:40:15;81.50;;;75.97;;
7613;SDS011;3848;42.016;23.098;2022-11-15T05:42:42;77.67;;;72.70;;
7613;SDS011;3848;42.016;23.098;2022-11-15T05:45:10;77.23;;;71.20;;
7613;SDS011;3848;42.016;23.098;2022-11-15T05:47:37;76.20;;;70.67;;
7613;SDS011;3848;42.016;23.098;2022-11-15T05:50:05;79.70;;;73.30;;
7613;SDS011;3848;42.016;23.098;2022-11-15T05:52:34;74.53;;;69.83;;
7613;SDS011;3848;42.016;23.098;2022-11-15T05:55:03;87.13;;;81.63;;
7613;SDS011;3848;42.016;23.098;2022-11-15T05:57:32;75.23;;;70.17;;
7613;SDS011;3848;42.016;23.098;2022-11-15T05:59:59;79.13;;;73.10;;
7613;SDS011;3848;42.016;23.098;2022-11-15T06:02:27;76.80;;;69.40;;
7613;SDS011;3848;42.016;23.098;2022-11-15T06:04:54;119.30;;;91.00;;
7613;SDS011;3848;42.016;23.098;2022-11-15T06:07:21;180.90;;;105.50;;
7613;SDS011;3848;42.016;23.098;2022-11-15T06:09:48;246.00;;;155.33;;
7613;SDS011;3848;42.016;23.098;2022-11-15T06:12:15;103.37;;;92.00;;
7613;SDS011;3848;42.016;23.098;2022-11-15T06:14:41;83.77;;;75.20;;
7613;SDS011;3848;42.016;23.098;2022-11-15T06:17:08;76.93;;;71.10;;
7613;SDS011;3848;42.016;23.098;2022-11-15T06:19:36;75.50;;;69.60;;
7613;SDS011;3848;42.016;23.098;2022-11-15T06:22:03;75.57;;;70.43;;
7613;SDS011;3848;42.016;23.098;2022-11-15T06:24:30;69.53;;;64.50;;
7613;SDS011;3848;42.016;23.098;2022-11-15T06:26:57;74.40;;;68.73;;
7613;SDS011;3848;42.016;23.098;2022-11-15T06:29:24;69.33;;;64.47;;
7613;SDS011;3848;42.016;23.098;2022-11-15T06:31:50;62.90;;;58.13;;
7613;SDS011;3848;42.016;23.098;2022-11-15T06:34:17;71.80;;;65.97;;
7613;SDS011;3848;42.016;23.098;2022-11-15T06:36:45;74.53;;;69.33;;
7613;SDS011;3848;42.016;23.098;2022-11-15T06:39:12;85.60;;;79.27;;
7613;SDS011;3848;42.016;23.098;2022-11-15T06:41:39;88.23;;;82.53;;
7613;SDS011;3848;42.016;23.098;2022-11-15T06:44:06;92.83;;;86.53;;
7613;SDS011;3848;42.016;23.098;2022-11-15T06:46:32;86.53;;;80.00;;
7613;SDS011;3848;42.016;23.098;2022-11-15T06:48:59;86.27;;;79.90;;
7613;SDS011;3848;42.016;23.098;2022-11-15T06:51:26;84.73;;;78.33;;
7613;SDS011;3848;42.016;23.098;2022-11-15T06:53:54;82.60;;;75.90;;
7613;SDS011;3848;42.016;23.098;2022-11-15T06:56:21;84.40;;;77.80;;
7613;SDS011;3848;42.016;23.098;2022-11-15T06:58:48;90.57;;;84.23;;
7613;SDS011;3848;42.016;23.098;2022-11-15T07:01:15;92.27;;;85.10;;
7613;SDS011;3848;42.016;23.098;2022-11-15T07:03:42;84.00;;;77.37;;
7613;SDS011;3848;42.016;23.098;2022-11-15T07:06:09;90.57;;;83.93;;
7613;SDS011;3848;42.016;23.098;2022-11-15T07:08:36;83.90;;;77.23;;
7613;SDS011;3848;42.016;23.098;2022-11-15T07:11:05;80.87;;;75.07;;
7613;SDS011;3848;42.016;23.098;2022-11-15T07:13:33;82.03;;;75.97;;
7613;SDS011;3848;42.016;23.098;2022-11-15T07:16:02;79.03;;;71.97;;
7613;SDS011;3848;42.016;23.098;2022-11-15T07:18:29;77.73;;;71.07;;
7613;SDS011;3848;42.016;23.098;2022-11-15T07:20:59;75.40;;;68.67;;
7613;SDS011;3848;42.016;23.098;2022-11-15T07:23:27;70.13;;;64.30;;
7613;SDS011;3848;42.016;23.098;2022-11-15T07:25:55;78.50;;;71.27;;
7613;SDS011;3848;42.016;23.098;2022-11-15T07:28:24;74.73;;;68.00;;
7613;SDS011;3848;42.016;23.098;2022-11-15T07:30:52;74.93;;;69.03;;
7613;SDS011;3848;42.016;23.098;2022-11-15T07:33:18;73.07;;;66.80;;
7613;SDS011;3848;42.016;23.098;2022-11-15T07:35:45;74.13;;;68.67;;
7613;SDS011;3848;42.016;23.098;2022-11-15T07:38:14;73.03;;;66.60;;
7613;SDS011;3848;42.016;23.098;2022-11-15T07:40:44;69.40;;;63.73;;
7613;SDS011;3848;42.016;23.098;2022-11-15T07:43:12;70.60;;;65.20;;
7613;SDS011;3848;42.016;23.098;2022-11-15T07:45:41;69.67;;;63.53;;
7613;SDS011;3848;42.016;23.098;2022-11-15T07:48:09;71.53;;;64.90;;
7613;SDS011;3848;42.016;23.098;2022-11-15T07:50:36;72.40;;;65.63;;
7613;SDS011;3848;42.016;23.098;2022-11-15T07:53:03;66.63;;;60.80;;
7613;SDS011;3848;42.016;23.098;2022-11-15T07:55:30;67.47;;;61.13;;
7613;SDS011;3848;42.016;23.098;2022-11-15T07:58:00;71.87;;;64.07;;
7613;SDS011;3848;42.016;23.098;2022-11-15T08:00:27;72.70;;;64.60;;
7613;SDS011;3848;42.016;23.098;2022-11-15T08:03:02;71.67;;;64.13;;
7613;SDS011;3848;42.016;23.098;2022-11-15T08:05:29;69.10;;;62.23;;
7613;SDS011;3848;42.016;23.098;2022-11-15T08:07:56;66.07;;;59.70;;
7613;SDS011;3848;42.016;23.098;2022-11-15T08:10:23;67.53;;;61.53;;
7613;SDS011;3848;42.016;23.098;2022-11-15T08:12:56;69.63;;;63.57;;
7613;SDS011;3848;42.016;23.098;2022-11-15T08:15:24;69.83;;;63.53;;
7613;SDS011;3848;42.016;23.098;2022-11-15T08:17:53;66.10;;;59.83;;
7613;SDS011;3848;42.016;23.098;2022-11-15T08:20:22;59.20;;;53.93;;
7613;SDS011;3848;42.016;23.098;2022-11-15T08:22:49;62.13;;;56.30;;
7613;SDS011;3848;42.016;23.098;2022-11-15T08:25:16;63.50;;;57.30;;
7613;SDS011;3848;42.016;23.098;2022-11-15T08:27:43;70.00;;;60.23;;
7613;SDS011;3848;42.016;23.098;2022-11-15T08:30:11;56.43;;;50.57;;
7613;SDS011;3848;42.016;23.098;2022-11-15T08:32:38;61.77;;;54.07;;
7613;SDS011;3848;42.016;23.098;2022-11-15T08:35:05;59.37;;;53.50;;
7613;SDS011;3848;42.016;23.098;2022-11-15T08:37:35;54.30;;;48.87;;
7613;SDS011;3848;42.016;23.098;2022-11-15T08:40:01;54.37;;;48.60;;
7613;SDS011;3848;42.016;23.098;2022-11-15T08:42:29;52.77;;;47.60;;
7613;SDS011;3848;42.016;23.098;2022-11-15T08:44:55;49.77;;;45.13;;
7613;SDS011;3848;42.016;23.098;2022-11-15T08:47:22;52.93;;;47.40;;
7613;SDS011;3848;42.016;23.098;2022-11-15T08:49:49;52.30;;;46.20;;
7613;SDS011;3848;42.016;23.098;2022-11-15T08:52:16;53.97;;;48.60;;
7613;SDS011;3848;42.016;23.098;2022-11-15T08:54:44;48.90;;;44.37;;
7613;SDS011;3848;42.016;23.098;2022-11-15T08:57:11;45.93;;;40.97;;
7613;SDS011;3848;42.016;23.098;2022-11-15T08:59:38;44.87;;;40.07;;
7613;SDS011;3848;42.016;23.098;2022-11-15T09:02:05;44.17;;;40.00;;
7613;SDS011;3848;42.016;23.098;2022-11-15T09:04:32;47.23;;;43.03;;
7613;SDS011;3848;42.016;23.098;2022-11-15T09:06:59;48.13;;;42.80;;
7613;SDS011;3848;42.016;23.098;2022-11-15T09:09:26;48.93;;;43.77;;
7613;SDS011;3848;42.016;23.098;2022-11-15T09:11:54;43.77;;;39.17;;
7613;SDS011;3848;42.016;23.098;2022-11-15T09:14:20;42.50;;;37.87;;
7613;SDS011;3848;42.016;23.098;2022-11-15T09:16:47;40.93;;;37.00;;
7613;SDS011;3848;42.016;23.098;2022-11-15T09:19:14;38.57;;;34.87;;
7613;SDS011;3848;42.016;23.098;2022-11-15T09:21:41;41.87;;;36.50;;
7613;SDS011;3848;42.016;23.098;2022-11-15T09:24:07;42.97;;;38.63;;
7613;SDS011;3848;42.016;23.098;2022-11-15T09:26:34;40.10;;;36.63;;
7613;SDS011;3848;42.016;23.098;2022-11-15T09:29:03;40.33;;;36.63;;
7613;SDS011;3848;42.016;23.098;2022-11-15T09:31:29;44.00;;;39.73;;
7613;SDS011;3848;42.016;23.098;2022-11-15T09:33:56;41.90;;;37.60;;
7613;SDS011;3848;42.016;23.098;2022-11-15T09:36:23;42.50;;;38.33;;
7613;SDS011;3848;42.016;23.098;2022-11-15T09:38:51;40.73;;;36.97;;
7613;SDS011;3848;42.016;23.098;2022-11-15T09:41:25;39.80;;;35.83;;
7613;SDS011;3848;42.016;23.098;2022-11-15T09:44:05;40.17;;;34.97;;
7613;SDS011;3848;42.016;23.098;2022-11-15T09:46:43;39.70;;;35.97;;
7613;SDS011;3848;42.016;23.098;2022-11-15T09:49:16;40.97;;;36.77;;
7613;SDS011;3848;42.016;23.098;2022-11-15T09:51:44;43.90;;;39.27;;
7613;SDS011;3848;42.016;23.098;2022-11-15T09:54:16;37.73;;;33.23;;
7613;SDS011;3848;42.016;23.098;2022-11-15T09:56:52;46.40;;;35.70;;
7613;SDS011;3848;42.016;23.098;2022-11-15T09:59:33;43.07;;;34.73;;
7613;SDS011;3848;42.016;23.098;2022-11-15T10:02:15;37.97;;;33.97;;
7613;SDS011;3848;42.016;23.098;2022-11-15T10:04:56;37.60;;;32.97;;
7613;SDS011;3848;42.016;23.098;2022-11-15T10:07:26;39.07;;;35.37;;
7613;SDS011;3848;42.016;23.098;2022-11-15T10:09:57;38.97;;;35.17;;
7613;SDS011;3848;42.016;23.098;2022-11-15T10:12:27;45.60;;;33.90;;
7613;SDS011;3848;42.016;23.098;2022-11-15T10:14:57;36.97;;;33.17;;
7613;SDS011;3848;42.016;23.098;2022-11-15T10:17:31;39.57;;;36.00;;
7613;SDS011;3848;42.016;23.098;2022-11-15T10:20:22;44.77;;;40.13;;
7613;SDS011;3848;42.016;23.098;2022-11-15T10:22:52;37.07;;;33.13;;
7613;SDS011;3848;42.016;23.098;2022-11-15T10:25:22;39.70;;;36.13;;
7613;SDS011;3848;42.016;23.098;2022-11-15T10:27:52;40.30;;;36.40;;
7613;SDS011;3848;42.016;23.098;2022-11-15T10:30:22;40.10;;;36.27;;
7613;SDS011;3848;42.016;23.098;2022-11-15T10:32:56;38.30;;;34.77;;
7613;SDS011;3848;42.016;23.098;2022-11-15T10:35:23;40.07;;;36.33;;
7613;SDS011;3848;42.016;23.098;2022-11-15T10:37:52;40.53;;;36.63;;
7613;SDS011;3848;42.016;23.098;2022-11-15T10:40:31;41.00;;;37.00;;
7613;SDS011;3848;42.016;23.098;2022-11-15T10:43:04;42.17;;;37.97;;
7613;SDS011;3848;42.016;23.098;2022-11-15T10:45:33;41.90;;;38.00;;
7613;SDS011;3848;42.016;23.098;2022-11-15T10:50:47;42.60;;;38.80;;
7613;SDS011;3848;42.016;23.098;2022-11-15T10:53:17;42.57;;;38.97;;
7613;SDS011;3848;42.016;23.098;2022-11-15T10:55:52;46.67;;;42.03;;
7613;SDS011;3848;42.016;23.098;2022-11-15T10:58:22;45.90;;;42.03;;
7613;SDS011;3848;42.016;23.098;2022-11-15T11:01:07;44.27;;;40.00;;
7613;SDS011;3848;42.016;23.098;2022-11-15T11:03:36;48.73;;;44.63;;
7613;SDS011;3848;42.016;23.098;2022-11-15T11:06:05;52.47;;;47.87;;
7613;SDS011;3848;42.016;23.098;2022-11-15T11:08:33;48.63;;;44.83;;
7613;SDS011;3848;42.016;23.098;2022-11-15T11:11:01;60.13;;;54.93;;
7613;SDS011;3848;42.016;23.098;2022-11-15T11:13:30;55.17;;;50.83;;
7613;SDS011;3848;42.016;23.098;2022-11-15T11:16:00;54.47;;;50.43;;
7613;SDS011;3848;42.016;23.098;2022-11-15T11:18:48;61.97;;;56.43;;
7613;SDS011;3848;42.016;23.098;2022-11-15T11:21:25;61.23;;;55.83;;
7613;SDS011;3848;42.016;23.098;2022-11-15T11:24:05;59.17;;;54.30;;
7613;SDS011;3848;42.016;23.098;2022-11-15T11:26:40;60.30;;;55.67;;
7613;SDS011;3848;42.016;23.098;2022-11-15T11:29:18;61.63;;;56.97;;
7613;SDS011;3848;42.016;23.098;2022-11-15T11:31:54;67.27;;;61.80;;
7613;SDS011;3848;42.016;23.098;2022-11-15T11:34:42;61.13;;;56.10;;
7613;SDS011;3848;42.016;23.098;2022-11-15T11:37:17;60.47;;;55.57;;
7613;SDS011;3848;42.016;23.098;2022-11-15T11:39:53;68.20;;;63.07;;
7613;SDS011;3848;42.016;23.098;2022-11-15T11:42:30;59.03;;;54.00;;
7613;SDS011;3848;42.016;23.098;2022-11-15T11:45:12;56.47;;;52.27;;
7613;SDS011;3848;42.016;23.098;2022-11-15T11:47:47;52.13;;;47.80;;
7613;SDS011;3848;42.016;23.098;2022-11-15T11:50:21;49.03;;;44.90;;
7613;SDS011;3848;42.016;23.098;2022-11-15T11:52:54;45.20;;;40.73;;
7613;SDS011;3848;42.016;23.098;2022-11-15T11:55:26;40.67;;;37.37;;
7613;SDS011;3848;42.016;23.098;2022-11-15T11:58:00;38.00;;;34.87;;
7613;SDS011;3848;42.016;23.098;2022-11-15T12:00:31;38.00;;;34.53;;
7613;SDS011;3848;42.016;23.098;2022-11-15T12:03:07;37.83;;;34.40;;
7613;SDS011;3848;42.016;23.098;2022-11-15T12:05:39;35.23;;;31.90;;
7613;SDS011;3848;42.016;23.098;2022-11-15T12:08:18;36.43;;;32.93;;
7613;SDS011;3848;42.016;23.098;2022-11-15T12:10:54;35.20;;;32.00;;
7613;SDS011;3848;42.016;23.098;2022-11-15T12:13:28;37.73;;;34.07;;
7613;SDS011;3848;42.016;23.098;2022-11-15T12:16:00;35.27;;;31.97;;
7613;SDS011;3848;42.016;23.098;2022-11-15T12:18:33;36.30;;;32.73;;
7613;SDS011;3848;42.016;23.098;2022-11-15T12:21:02;35.03;;;31.70;;
7613;SDS011;3848;42.016;23.098;2022-11-15T12:23:35;42.00;;;34.13;;
7613;SDS011;3848;42.016;23.098;2022-11-15T12:26:08;33.33;;;30.53;;
7613;SDS011;3848;42.016;23.098;2022-11-15T12:28:38;34.37;;;31.13;;
7613;SDS011;3848;42.016;23.098;2022-11-15T12:31:12;32.53;;;29.83;;
7613;SDS011;3848;42.016;23.098;2022-11-15T12:33:46;34.00;;;31.40;;
7613;SDS011;3848;42.016;23.098;2022-11-15T12:36:29;32.53;;;29.63;;
7613;SDS011;3848;42.016;23.098;2022-11-15T12:39:01;32.33;;;29.70;;
7613;SDS011;3848;42.016;23.098;2022-11-15T12:41:31;33.33;;;30.70;;
7613;SDS011;3848;42.016;23.098;2022-11-15T12:43:59;37.23;;;33.70;;
7613;SDS011;3848;42.016;23.098;2022-11-15T12:49:43;35.43;;;32.50;;
7613;SDS011;3848;42.016;23.098;2022-11-15T12:52:11;33.57;;;30.50;;
7613;SDS011;3848;42.016;23.098;2022-11-15T12:54:53;39.67;;;36.33;;
7613;SDS011;3848;42.016;23.098;2022-11-15T12:57:25;33.27;;;30.53;;
7613;SDS011;3848;42.016;23.098;2022-11-15T13:06:07;34.87;;;32.17;;
7613;SDS011;3848;42.016;23.098;2022-11-15T13:08:51;33.30;;;30.47;;
7613;SDS011;3848;42.016;23.098;2022-11-15T13:20:18;31.93;;;29.43;;
7613;SDS011;3848;42.016;23.098;2022-11-15T13:22:49;31.83;;;28.90;;
7613;SDS011;3848;42.016;23.098;2022-11-15T13:25:16;32.07;;;29.43;;
7613;SDS011;3848;42.016;23.098;2022-11-15T13:27:48;31.93;;;29.10;;
7613;SDS011;3848;42.016;23.098;2022-11-15T13:30:22;34.00;;;30.97;;
7613;SDS011;3848;42.016;23.098;2022-11-15T13:32:51;33.37;;;30.70;;
7613;SDS011;3848;42.016;23.098;2022-11-15T13:35:20;32.30;;;29.63;;
7613;SDS011;3848;42.016;23.098;2022-11-15T13:37:50;33.37;;;30.67;;
7613;SDS011;3848;42.016;23.098;2022-11-15T13:40:23;32.47;;;29.70;;
7613;SDS011;3848;42.016;23.098;2022-11-15T13:42:55;32.67;;;30.13;;
7613;SDS011;3848;42.016;23.098;2022-11-15T13:45:23;33.43;;;30.87;;
7613;SDS011;3848;42.016;23.098;2022-11-15T13:47:52;34.73;;;31.87;;
7613;SDS011;3848;42.016;23.098;2022-11-15T13:50:21;32.63;;;29.87;;
7613;SDS011;3848;42.016;23.098;2022-11-15T13:52:52;33.47;;;30.87;;
7613;SDS011;3848;42.016;23.098;2022-11-15T13:55:24;35.37;;;32.10;;
7613;SDS011;3848;42.016;23.098;2022-11-15T13:57:53;35.40;;;32.67;;
7613;SDS011;3848;42.016;23.098;2022-11-15T14:00:24;34.70;;;31.80;;
7613;SDS011;3848;42.016;23.098;2022-11-15T14:03:04;33.13;;;30.43;;
7613;SDS011;3848;42.016;23.098;2022-11-15T14:05:33;36.73;;;33.57;;
7613;SDS011;3848;42.016;23.098;2022-11-15T14:08:02;37.60;;;34.20;;
7613;SDS011;3848;42.016;23.098;2022-11-15T14:10:39;35.40;;;32.47;;
7613;SDS011;3848;42.016;23.098;2022-11-15T14:13:09;38.10;;;34.90;;
7613;SDS011;3848;42.016;23.098;2022-11-15T14:15:54;35.57;;;32.77;;
7613;SDS011;3848;42.016;23.098;2022-11-15T14:18:40;37.20;;;33.57;;
7613;SDS011;3848;42.016;23.098;2022-11-15T14:21:08;34.83;;;31.97;;
7613;SDS011;3848;42.016;23.098;2022-11-15T14:23:37;37.00;;;33.37;;
7613;SDS011;3848;42.016;23.098;2022-11-15T14:26:04;35.40;;;32.47;;
7613;SDS011;3848;42.016;23.098;2022-11-15T14:28:31;36.77;;;33.97;;
7613;SDS011;3848;42.016;23.098;2022-11-15T14:31:04;37.43;;;34.53;;
7613;SDS011;3848;42.016;23.098;2022-11-15T14:33:37;40.37;;;36.67;;
7613;SDS011;3848;42.016;23.098;2022-11-15T14:36:05;40.53;;;37.33;;
7613;SDS011;3848;42.016;23.098;2022-11-15T14:38:38;36.33;;;33.60;;
7613;SDS011;3848;42.016;23.098;2022-11-15T14:41:05;40.73;;;37.43;;
7613;SDS011;3848;42.016;23.098;2022-11-15T14:43:36;40.73;;;37.03;;
7613;SDS011;3848;42.016;23.098;2022-11-15T14:46:03;38.77;;;35.23;;
7613;SDS011;3848;42.016;23.098;2022-11-15T14:48:30;42.43;;;38.70;;
7613;SDS011;3848;42.016;23.098;2022-11-15T14:50:57;41.40;;;38.03;;
7613;SDS011;3848;42.016;23.098;2022-11-15T14:53:24;40.20;;;36.80;;
7613;SDS011;3848;42.016;23.098;2022-11-15T14:55:52;40.70;;;37.50;;
7613;SDS011;3848;42.016;23.098;2022-11-15T14:58:19;40.70;;;37.23;;
7613;SDS011;3848;42.016;23.098;2022-11-15T15:00:45;38.93;;;35.90;;
7613;SDS011;3848;42.016;23.098;2022-11-15T15:03:12;41.20;;;37.90;;
7613;SDS011;3848;42.016;23.098;2022-11-15T15:05:40;40.30;;;37.23;;
7613;SDS011;3848;42.016;23.098;2022-11-15T15:08:08;40.87;;;37.43;;
7613;SDS011;3848;42.016;23.098;2022-11-15T15:10:36;41.67;;;38.17;;
7613;SDS011;3848;42.016;23.098;2022-11-15T15:13:06;41.00;;;37.00;;
7613;SDS011;3848;42.016;23.098;2022-11-15T15:15:41;38.53;;;35.13;;